Domov
logo

Vyskúšajte rýchly a spoľahlivý webhosting

Aktuálne počasie

LZIB - letisko Bratislava

Hodnoty namerané: 18.10.2021, 15:30 SELČ
Aktuálny čas: 18.10.2021, 15:42 SELČ
Aktualizované: pred 12 min.
Teplota: 14°C
Rosný bod: 4°C
Vietor: 13 km/h 310° (SZ)
Dohľadnosť: viac ako 10 km
Stav počasia: bez zrážok
Oblačnosť: malá oblačnosť na 1463 m
Základňa oblačnosti: 1463 m
Vlhkosť vzduchu: 51 %
Tlak vzduchu: 1026 hPa
METAR: LZIB 181330Z 31007KT 9999 FEW048 14/04 Q1026 NOSIG

LZKZ - letisko Košice

Hodnoty namerané: 18.10.2021, 15:30 SELČ
Aktuálny čas: 18.10.2021, 15:42 SELČ
Aktualizované: pred 12 min.
Teplota: 13°C
Rosný bod: 3°C
Vietor: premenlivý 2 km/h
Dohľadnosť: viac ako 10 km
Stav počasia: bez zrážok
Oblačnosť: oblačno na 1311 m
Základňa oblačnosti: 1311 m
Vlhkosť vzduchu: 51 %
Tlak vzduchu: 1024 hPa
METAR: LZKZ 181330Z VRB01KT 9999 BKN043 13/03 Q1024 NOSIG

LZPP - letisko Piešťany

Hodnoty namerané: 18.10.2021, 15:30 SELČ
Aktuálny čas: 18.10.2021, 15:42 SELČ
Aktualizované: pred 12 min.
Teplota: 13°C
Rosný bod: 6°C
Vietor: 15 km/h 360° (S)
Dohľadnosť: viac ako 10 km
Stav počasia: bez zrážok
Oblačnosť: oblačno na 1219 m
Základňa oblačnosti: 1219 m
Vlhkosť vzduchu: 63 %
Tlak vzduchu: 1026 hPa
METAR: LZPP 181330Z 36008KT 9999 BKN040 13/06 Q1026

LZTT - letisko Poprad Tatry

Hodnoty namerané: 18.10.2021, 15:30 SELČ
Aktuálny čas: 18.10.2021, 15:42 SELČ
Aktualizované: pred 12 min.
Teplota: 10°C, pocitová teplota 9°C
Rosný bod: 4°C
Vietor: 6 km/h 270° (Z) kolíše v rozsahu 180°-350° (J-S)
Dohľadnosť: viac ako 10 km
Stav počasia: bez zrážok
Oblačnosť: malá oblačnosť na 914 m, polooblačno na 1280 m
Základňa oblačnosti: 914 m
Vlhkosť vzduchu: 67 %
Tlak vzduchu: 1024 hPa
METAR: LZTT 181330Z 27003KT 180V350 9999 FEW030 SCT042 10/04 Q1024 NOSIG

LZZI - letisko Žilina

Hodnoty namerané: 18.10.2021, 15:30 SELČ
Aktuálny čas: 18.10.2021, 15:42 SELČ
Aktualizované: pred 12 min.
Teplota: 10°C
Rosný bod: 5°C
Vietor: 4 km/h 30° (SSV)
Dohľadnosť: viac ako 10 km
Stav počasia: bez zrážok
Oblačnosť: oblačno na 732 m
Základňa oblačnosti: 732 m
Vlhkosť vzduchu: 71 %
Tlak vzduchu: 1026 hPa
METAR: LZZI 181330Z 03002KT 9999 BKN024 10/05 Q1026

POZNÁMKY:

SEČ - stredoeurópsky čas (UTC+1hod.)

SELČ - stredoeurópsky letný čas (UTC+2hod.)

UTC - univerzálny svetový čas, GMT, ZULU

METAR - sú pravidelné kódované letecké meteorologické správy. Tie zostavujú a zverejňujú meteorologické stanice letísk v polhodinových/hodinových intervaloch. Na tejto stránke správy METAR zo slovenských letísk nájdete už v dekódovanej podobe.

hore